sensor_id;sensor_type;location;lat;lon;timestamp;P1;durP1;ratioP1;P2;durP2;ratioP2
66669;SDS011;53568;52.164;4.472;2024-01-15T00:02:14;6.51;;;3.92;;
66669;SDS011;53568;52.164;4.472;2024-01-15T00:04:40;7.59;;;4.53;;
66669;SDS011;53568;52.164;4.472;2024-01-15T00:07:07;8.71;;;5.17;;
66669;SDS011;53568;52.164;4.472;2024-01-15T00:09:33;9.67;;;5.71;;
66669;SDS011;53568;52.164;4.472;2024-01-15T00:11:59;9.19;;;5.41;;
66669;SDS011;53568;52.164;4.472;2024-01-15T00:14:25;9.66;;;5.64;;
66669;SDS011;53568;52.164;4.472;2024-01-15T00:16:51;9.00;;;5.32;;
66669;SDS011;53568;52.164;4.472;2024-01-15T00:19:17;8.56;;;5.05;;
66669;SDS011;53568;52.164;4.472;2024-01-15T00:21:43;7.30;;;4.32;;
66669;SDS011;53568;52.164;4.472;2024-01-15T00:24:09;8.27;;;4.90;;
66669;SDS011;53568;52.164;4.472;2024-01-15T00:26:35;7.67;;;4.50;;
66669;SDS011;53568;52.164;4.472;2024-01-15T00:29:02;6.93;;;4.07;;
66669;SDS011;53568;52.164;4.472;2024-01-15T00:31:28;6.51;;;3.85;;
66669;SDS011;53568;52.164;4.472;2024-01-15T00:33:55;6.42;;;3.80;;
66669;SDS011;53568;52.164;4.472;2024-01-15T00:36:20;7.39;;;4.34;;
66669;SDS011;53568;52.164;4.472;2024-01-15T00:38:46;7.63;;;4.43;;
66669;SDS011;53568;52.164;4.472;2024-01-15T00:41:12;9.07;;;5.24;;
66669;SDS011;53568;52.164;4.472;2024-01-15T00:43:38;7.36;;;4.28;;
66669;SDS011;53568;52.164;4.472;2024-01-15T00:46:04;7.37;;;4.29;;
66669;SDS011;53568;52.164;4.472;2024-01-15T00:48:30;7.29;;;4.27;;
66669;SDS011;53568;52.164;4.472;2024-01-15T00:50:56;8.07;;;4.69;;
66669;SDS011;53568;52.164;4.472;2024-01-15T00:53:21;8.21;;;4.80;;
66669;SDS011;53568;52.164;4.472;2024-01-15T00:55:50;8.35;;;4.90;;
66669;SDS011;53568;52.164;4.472;2024-01-15T00:58:15;7.26;;;4.27;;
66669;SDS011;53568;52.164;4.472;2024-01-15T01:00:41;6.79;;;4.00;;
66669;SDS011;53568;52.164;4.472;2024-01-15T01:03:07;8.02;;;4.74;;
66669;SDS011;53568;52.164;4.472;2024-01-15T01:05:34;7.92;;;4.72;;
66669;SDS011;53568;52.164;4.472;2024-01-15T01:08:00;6.63;;;3.97;;
66669;SDS011;53568;52.164;4.472;2024-01-15T01:10:25;6.53;;;3.83;;
66669;SDS011;53568;52.164;4.472;2024-01-15T01:12:51;7.20;;;4.17;;
66669;SDS011;53568;52.164;4.472;2024-01-15T01:15:16;7.82;;;4.55;;
66669;SDS011;53568;52.164;4.472;2024-01-15T01:17:42;6.78;;;4.00;;
66669;SDS011;53568;52.164;4.472;2024-01-15T01:20:07;6.73;;;4.02;;
66669;SDS011;53568;52.164;4.472;2024-01-15T01:22:34;6.30;;;3.78;;
66669;SDS011;53568;52.164;4.472;2024-01-15T01:25:00;6.16;;;3.70;;
66669;SDS011;53568;52.164;4.472;2024-01-15T01:27:26;6.59;;;3.99;;
66669;SDS011;53568;52.164;4.472;2024-01-15T01:29:51;6.56;;;3.94;;
66669;SDS011;53568;52.164;4.472;2024-01-15T01:32:18;6.54;;;3.86;;
66669;SDS011;53568;52.164;4.472;2024-01-15T01:34:43;6.84;;;4.02;;
66669;SDS011;53568;52.164;4.472;2024-01-15T01:37:12;7.18;;;4.28;;
66669;SDS011;53568;52.164;4.472;2024-01-15T01:39:39;6.69;;;3.99;;
66669;SDS011;53568;52.164;4.472;2024-01-15T01:42:05;7.53;;;4.46;;
66669;SDS011;53568;52.164;4.472;2024-01-15T01:44:31;7.16;;;4.23;;
66669;SDS011;53568;52.164;4.472;2024-01-15T01:46:57;5.83;;;3.44;;
66669;SDS011;53568;52.164;4.472;2024-01-15T01:49:24;5.20;;;3.07;;
66669;SDS011;53568;52.164;4.472;2024-01-15T01:51:52;5.96;;;3.47;;
66669;SDS011;53568;52.164;4.472;2024-01-15T01:54:18;5.10;;;2.97;;
66669;SDS011;53568;52.164;4.472;2024-01-15T01:56:46;5.07;;;2.97;;
66669;SDS011;53568;52.164;4.472;2024-01-15T01:59:14;3.81;;;2.25;;
66669;SDS011;53568;52.164;4.472;2024-01-15T02:01:39;4.47;;;2.61;;
66669;SDS011;53568;52.164;4.472;2024-01-15T02:04:06;4.44;;;2.61;;
66669;SDS011;53568;52.164;4.472;2024-01-15T02:06:31;3.88;;;2.28;;
66669;SDS011;53568;52.164;4.472;2024-01-15T02:08:57;5.03;;;2.94;;
66669;SDS011;53568;52.164;4.472;2024-01-15T02:11:23;4.58;;;2.66;;
66669;SDS011;53568;52.164;4.472;2024-01-15T02:13:48;4.91;;;2.86;;
66669;SDS011;53568;52.164;4.472;2024-01-15T02:16:14;4.84;;;2.85;;
66669;SDS011;53568;52.164;4.472;2024-01-15T02:18:43;6.04;;;3.55;;
66669;SDS011;53568;52.164;4.472;2024-01-15T02:21:10;5.82;;;3.46;;
66669;SDS011;53568;52.164;4.472;2024-01-15T02:23:37;6.48;;;3.83;;
66669;SDS011;53568;52.164;4.472;2024-01-15T02:26:03;5.45;;;3.21;;
66669;SDS011;53568;52.164;4.472;2024-01-15T02:28:30;5.21;;;3.09;;
66669;SDS011;53568;52.164;4.472;2024-01-15T02:30:57;5.47;;;3.25;;
66669;SDS011;53568;52.164;4.472;2024-01-15T02:33:23;4.82;;;2.86;;
66669;SDS011;53568;52.164;4.472;2024-01-15T02:35:49;5.46;;;3.22;;
66669;SDS011;53568;52.164;4.472;2024-01-15T02:38:17;7.16;;;4.23;;
66669;SDS011;53568;52.164;4.472;2024-01-15T02:40:44;6.74;;;4.00;;
66669;SDS011;53568;52.164;4.472;2024-01-15T02:43:10;7.43;;;4.38;;
66669;SDS011;53568;52.164;4.472;2024-01-15T02:45:37;7.50;;;4.48;;
66669;SDS011;53568;52.164;4.472;2024-01-15T02:48:02;8.11;;;4.90;;
66669;SDS011;53568;52.164;4.472;2024-01-15T02:50:28;7.29;;;4.40;;
66669;SDS011;53568;52.164;4.472;2024-01-15T02:52:54;7.26;;;4.31;;
66669;SDS011;53568;52.164;4.472;2024-01-15T02:55:19;6.88;;;4.07;;
66669;SDS011;53568;52.164;4.472;2024-01-15T02:57:45;6.18;;;3.64;;
66669;SDS011;53568;52.164;4.472;2024-01-15T03:00:10;5.88;;;3.43;;
66669;SDS011;53568;52.164;4.472;2024-01-15T03:02:37;5.36;;;3.12;;
66669;SDS011;53568;52.164;4.472;2024-01-15T03:05:08;5.32;;;3.12;;
66669;SDS011;53568;52.164;4.472;2024-01-15T03:07:34;5.24;;;3.06;;
66669;SDS011;53568;52.164;4.472;2024-01-15T03:10:00;6.48;;;3.78;;
66669;SDS011;53568;52.164;4.472;2024-01-15T03:12:26;5.33;;;3.14;;
66669;SDS011;53568;52.164;4.472;2024-01-15T03:14:51;4.56;;;2.69;;
66669;SDS011;53568;52.164;4.472;2024-01-15T03:17:17;2.96;;;1.75;;
66669;SDS011;53568;52.164;4.472;2024-01-15T03:19:42;2.09;;;1.25;;
66669;SDS011;53568;52.164;4.472;2024-01-15T03:22:08;2.22;;;1.32;;
66669;SDS011;53568;52.164;4.472;2024-01-15T03:24:34;2.48;;;1.48;;
66669;SDS011;53568;52.164;4.472;2024-01-15T03:27:00;3.32;;;1.99;;
66669;SDS011;53568;52.164;4.472;2024-01-15T03:29:26;3.36;;;2.00;;
66669;SDS011;53568;52.164;4.472;2024-01-15T03:31:52;3.22;;;1.92;;
66669;SDS011;53568;52.164;4.472;2024-01-15T03:34:18;2.29;;;1.36;;
66669;SDS011;53568;52.164;4.472;2024-01-15T03:36:43;1.90;;;1.13;;
66669;SDS011;53568;52.164;4.472;2024-01-15T03:39:09;2.59;;;1.52;;
66669;SDS011;53568;52.164;4.472;2024-01-15T03:41:35;3.38;;;1.99;;
66669;SDS011;53568;52.164;4.472;2024-01-15T03:44:00;3.56;;;2.10;;
66669;SDS011;53568;52.164;4.472;2024-01-15T03:46:26;4.00;;;2.35;;
66669;SDS011;53568;52.164;4.472;2024-01-15T03:48:52;4.46;;;2.61;;
66669;SDS011;53568;52.164;4.472;2024-01-15T03:51:17;5.72;;;3.33;;
66669;SDS011;53568;52.164;4.472;2024-01-15T03:53:43;4.96;;;2.91;;
66669;SDS011;53568;52.164;4.472;2024-01-15T03:56:09;6.10;;;3.57;;
66669;SDS011;53568;52.164;4.472;2024-01-15T03:58:35;6.16;;;3.63;;
66669;SDS011;53568;52.164;4.472;2024-01-15T04:01:00;5.59;;;3.29;;
66669;SDS011;53568;52.164;4.472;2024-01-15T04:03:26;6.78;;;3.99;;
66669;SDS011;53568;52.164;4.472;2024-01-15T04:05:51;6.32;;;3.71;;
66669;SDS011;53568;52.164;4.472;2024-01-15T04:08:17;7.41;;;4.38;;
66669;SDS011;53568;52.164;4.472;2024-01-15T04:10:42;7.30;;;4.31;;
66669;SDS011;53568;52.164;4.472;2024-01-15T04:13:08;7.52;;;4.46;;
66669;SDS011;53568;52.164;4.472;2024-01-15T04:15:33;5.96;;;3.52;;
66669;SDS011;53568;52.164;4.472;2024-01-15T04:17:59;6.48;;;3.83;;
66669;SDS011;53568;52.164;4.472;2024-01-15T04:20:26;7.55;;;4.49;;
66669;SDS011;53568;52.164;4.472;2024-01-15T04:22:51;7.30;;;4.34;;
66669;SDS011;53568;52.164;4.472;2024-01-15T04:25:17;6.79;;;4.00;;
66669;SDS011;53568;52.164;4.472;2024-01-15T04:27:42;8.01;;;4.67;;
66669;SDS011;53568;52.164;4.472;2024-01-15T04:30:08;6.99;;;4.07;;
66669;SDS011;53568;52.164;4.472;2024-01-15T04:32:34;6.13;;;3.58;;
66669;SDS011;53568;52.164;4.472;2024-01-15T04:35:00;6.90;;;4.05;;
66669;SDS011;53568;52.164;4.472;2024-01-15T04:37:25;5.67;;;3.35;;
66669;SDS011;53568;52.164;4.472;2024-01-15T04:39:50;5.29;;;3.14;;
66669;SDS011;53568;52.164;4.472;2024-01-15T04:42:20;5.33;;;3.19;;
66669;SDS011;53568;52.164;4.472;2024-01-15T04:44:46;4.81;;;2.92;;
66669;SDS011;53568;52.164;4.472;2024-01-15T04:47:11;5.29;;;3.19;;
66669;SDS011;53568;52.164;4.472;2024-01-15T04:49:37;5.21;;;3.12;;
66669;SDS011;53568;52.164;4.472;2024-01-15T04:52:02;4.89;;;2.93;;
66669;SDS011;53568;52.164;4.472;2024-01-15T04:54:28;4.76;;;2.88;;
66669;SDS011;53568;52.164;4.472;2024-01-15T04:56:53;4.34;;;2.62;;
66669;SDS011;53568;52.164;4.472;2024-01-15T04:59:19;3.47;;;2.10;;
66669;SDS011;53568;52.164;4.472;2024-01-15T05:01:44;3.81;;;2.32;;
66669;SDS011;53568;52.164;4.472;2024-01-15T05:04:10;3.50;;;2.13;;
66669;SDS011;53568;52.164;4.472;2024-01-15T05:06:35;4.86;;;2.93;;
66669;SDS011;53568;52.164;4.472;2024-01-15T05:09:01;4.79;;;2.88;;
66669;SDS011;53568;52.164;4.472;2024-01-15T05:11:26;5.07;;;3.07;;
66669;SDS011;53568;52.164;4.472;2024-01-15T05:13:52;5.14;;;3.11;;
66669;SDS011;53568;52.164;4.472;2024-01-15T05:16:17;4.32;;;2.61;;
66669;SDS011;53568;52.164;4.472;2024-01-15T05:18:43;3.60;;;2.16;;
66669;SDS011;53568;52.164;4.472;2024-01-15T05:21:08;4.42;;;2.62;;
66669;SDS011;53568;52.164;4.472;2024-01-15T05:23:34;6.22;;;3.64;;
66669;SDS011;53568;52.164;4.472;2024-01-15T05:25:59;6.09;;;3.55;;
66669;SDS011;53568;52.164;4.472;2024-01-15T05:28:25;7.64;;;4.47;;
66669;SDS011;53568;52.164;4.472;2024-01-15T05:30:50;7.29;;;4.25;;
66669;SDS011;53568;52.164;4.472;2024-01-15T05:33:16;7.44;;;4.37;;
66669;SDS011;53568;52.164;4.472;2024-01-15T05:35:42;7.35;;;4.38;;
66669;SDS011;53568;52.164;4.472;2024-01-15T05:38:08;8.00;;;4.81;;
66669;SDS011;53568;52.164;4.472;2024-01-15T05:40:33;8.82;;;5.26;;
66669;SDS011;53568;52.164;4.472;2024-01-15T05:42:59;8.19;;;4.90;;
66669;SDS011;53568;52.164;4.472;2024-01-15T05:45:28;8.02;;;4.81;;
66669;SDS011;53568;52.164;4.472;2024-01-15T05:47:55;8.41;;;4.98;;
66669;SDS011;53568;52.164;4.472;2024-01-15T05:50:21;8.98;;;5.32;;
66669;SDS011;53568;52.164;4.472;2024-01-15T05:52:47;9.61;;;5.69;;
66669;SDS011;53568;52.164;4.472;2024-01-15T05:55:13;8.47;;;5.01;;
66669;SDS011;53568;52.164;4.472;2024-01-15T05:57:38;8.40;;;4.95;;
66669;SDS011;53568;52.164;4.472;2024-01-15T06:00:04;7.30;;;4.26;;
66669;SDS011;53568;52.164;4.472;2024-01-15T06:02:30;5.47;;;3.17;;
66669;SDS011;53568;52.164;4.472;2024-01-15T06:04:56;4.29;;;2.48;;
66669;SDS011;53568;52.164;4.472;2024-01-15T06:07:22;3.50;;;2.05;;
66669;SDS011;53568;52.164;4.472;2024-01-15T06:09:48;4.13;;;2.44;;
66669;SDS011;53568;52.164;4.472;2024-01-15T06:12:13;4.28;;;2.54;;
66669;SDS011;53568;52.164;4.472;2024-01-15T06:14:39;5.12;;;3.06;;
66669;SDS011;53568;52.164;4.472;2024-01-15T06:17:04;6.13;;;3.69;;
66669;SDS011;53568;52.164;4.472;2024-01-15T06:19:30;5.35;;;3.20;;
66669;SDS011;53568;52.164;4.472;2024-01-15T06:21:55;4.09;;;2.45;;
66669;SDS011;53568;52.164;4.472;2024-01-15T06:24:21;4.82;;;2.89;;
66669;SDS011;53568;52.164;4.472;2024-01-15T06:26:46;5.29;;;3.17;;
66669;SDS011;53568;52.164;4.472;2024-01-15T06:29:12;5.45;;;3.26;;
66669;SDS011;53568;52.164;4.472;2024-01-15T06:31:38;4.89;;;2.94;;
66669;SDS011;53568;52.164;4.472;2024-01-15T06:34:03;5.50;;;3.34;;
66669;SDS011;53568;52.164;4.472;2024-01-15T06:36:29;5.27;;;3.20;;
66669;SDS011;53568;52.164;4.472;2024-01-15T06:38:55;5.48;;;3.33;;
66669;SDS011;53568;52.164;4.472;2024-01-15T06:41:21;5.92;;;3.62;;
66669;SDS011;53568;52.164;4.472;2024-01-15T06:43:46;5.41;;;3.34;;
66669;SDS011;53568;52.164;4.472;2024-01-15T06:46:12;4.79;;;2.97;;
66669;SDS011;53568;52.164;4.472;2024-01-15T06:48:44;4.34;;;2.65;;
66669;SDS011;53568;52.164;4.472;2024-01-15T06:51:09;5.03;;;3.03;;
66669;SDS011;53568;52.164;4.472;2024-01-15T06:53:35;4.29;;;2.58;;
66669;SDS011;53568;52.164;4.472;2024-01-15T06:56:00;4.22;;;2.53;;
66669;SDS011;53568;52.164;4.472;2024-01-15T06:58:26;4.54;;;2.71;;
66669;SDS011;53568;52.164;4.472;2024-01-15T07:00:51;5.25;;;3.15;;
66669;SDS011;53568;52.164;4.472;2024-01-15T07:03:17;5.25;;;3.14;;
66669;SDS011;53568;52.164;4.472;2024-01-15T07:05:43;5.69;;;3.46;;
66669;SDS011;53568;52.164;4.472;2024-01-15T07:08:08;6.40;;;3.90;;
66669;SDS011;53568;52.164;4.472;2024-01-15T07:10:34;6.26;;;3.80;;
66669;SDS011;53568;52.164;4.472;2024-01-15T07:12:59;6.37;;;3.86;;
66669;SDS011;53568;52.164;4.472;2024-01-15T07:15:25;6.26;;;3.85;;
66669;SDS011;53568;52.164;4.472;2024-01-15T07:17:50;6.66;;;4.07;;
66669;SDS011;53568;52.164;4.472;2024-01-15T07:20:16;6.97;;;4.24;;
66669;SDS011;53568;52.164;4.472;2024-01-15T07:22:42;6.98;;;4.31;;
66669;SDS011;53568;52.164;4.472;2024-01-15T07:25:08;6.86;;;4.26;;
66669;SDS011;53568;52.164;4.472;2024-01-15T07:27:33;6.64;;;4.13;;
66669;SDS011;53568;52.164;4.472;2024-01-15T07:29:59;7.32;;;4.54;;
66669;SDS011;53568;52.164;4.472;2024-01-15T07:32:24;7.93;;;4.87;;
66669;SDS011;53568;52.164;4.472;2024-01-15T07:34:50;8.52;;;5.20;;
66669;SDS011;53568;52.164;4.472;2024-01-15T07:37:15;9.90;;;5.97;;
66669;SDS011;53568;52.164;4.472;2024-01-15T07:39:41;9.51;;;5.72;;
66669;SDS011;53568;52.164;4.472;2024-01-15T07:42:06;9.32;;;5.65;;
66669;SDS011;53568;52.164;4.472;2024-01-15T07:44:32;8.53;;;5.12;;
66669;SDS011;53568;52.164;4.472;2024-01-15T07:46:58;9.31;;;5.56;;
66669;SDS011;53568;52.164;4.472;2024-01-15T07:49:24;9.35;;;5.58;;
66669;SDS011;53568;52.164;4.472;2024-01-15T07:51:49;10.51;;;6.19;;
66669;SDS011;53568;52.164;4.472;2024-01-15T07:54:15;10.55;;;6.14;;
66669;SDS011;53568;52.164;4.472;2024-01-15T07:56:59;9.30;;;5.49;;
66669;SDS011;53568;52.164;4.472;2024-01-15T07:59:26;9.04;;;5.41;;
66669;SDS011;53568;52.164;4.472;2024-01-15T08:01:52;8.16;;;4.98;;
66669;SDS011;53568;52.164;4.472;2024-01-15T08:04:18;9.95;;;6.04;;
66669;SDS011;53568;52.164;4.472;2024-01-15T08:06:44;10.16;;;6.12;;
66669;SDS011;53568;52.164;4.472;2024-01-15T08:09:10;9.46;;;5.69;;
66669;SDS011;53568;52.164;4.472;2024-01-15T08:11:39;9.62;;;5.70;;
66669;SDS011;53568;52.164;4.472;2024-01-15T08:14:06;9.96;;;5.82;;
66669;SDS011;53568;52.164;4.472;2024-01-15T08:16:32;8.64;;;5.08;;
66669;SDS011;53568;52.164;4.472;2024-01-15T08:18:57;8.68;;;5.21;;
66669;SDS011;53568;52.164;4.472;2024-01-15T08:21:23;8.63;;;5.16;;
66669;SDS011;53568;52.164;4.472;2024-01-15T08:23:48;9.32;;;5.51;;
66669;SDS011;53568;52.164;4.472;2024-01-15T08:26:14;8.10;;;4.84;;
66669;SDS011;53568;52.164;4.472;2024-01-15T08:28:39;7.80;;;4.72;;
66669;SDS011;53568;52.164;4.472;2024-01-15T08:31:05;7.20;;;4.42;;
66669;SDS011;53568;52.164;4.472;2024-01-15T08:33:30;7.41;;;4.54;;
66669;SDS011;53568;52.164;4.472;2024-01-15T08:35:56;6.95;;;4.23;;
66669;SDS011;53568;52.164;4.472;2024-01-15T08:38:21;7.00;;;4.23;;
66669;SDS011;53568;52.164;4.472;2024-01-15T08:40:48;7.04;;;4.23;;
66669;SDS011;53568;52.164;4.472;2024-01-15T08:43:14;6.61;;;4.01;;
66669;SDS011;53568;52.164;4.472;2024-01-15T08:45:39;6.62;;;4.02;;
66669;SDS011;53568;52.164;4.472;2024-01-15T08:48:05;7.37;;;4.42;;
66669;SDS011;53568;52.164;4.472;2024-01-15T08:50:32;7.33;;;4.40;;
66669;SDS011;53568;52.164;4.472;2024-01-15T08:52:58;7.67;;;4.59;;
66669;SDS011;53568;52.164;4.472;2024-01-15T08:55:24;8.14;;;4.85;;
66669;SDS011;53568;52.164;4.472;2024-01-15T08:57:50;7.25;;;4.36;;
66669;SDS011;53568;52.164;4.472;2024-01-15T09:00:16;6.56;;;4.04;;
66669;SDS011;53568;52.164;4.472;2024-01-15T09:02:42;5.98;;;3.75;;
66669;SDS011;53568;52.164;4.472;2024-01-15T09:05:08;5.57;;;3.49;;
66669;SDS011;53568;52.164;4.472;2024-01-15T09:07:33;6.21;;;3.84;;
66669;SDS011;53568;52.164;4.472;2024-01-15T09:09:59;7.04;;;4.30;;
66669;SDS011;53568;52.164;4.472;2024-01-15T09:12:25;7.58;;;4.57;;
66669;SDS011;53568;52.164;4.472;2024-01-15T09:14:51;7.94;;;4.77;;
66669;SDS011;53568;52.164;4.472;2024-01-15T09:17:19;6.56;;;3.97;;
66669;SDS011;53568;52.164;4.472;2024-01-15T09:19:45;5.32;;;3.27;;
66669;SDS011;53568;52.164;4.472;2024-01-15T09:22:12;4.67;;;2.88;;
66669;SDS011;53568;52.164;4.472;2024-01-15T09:24:40;5.45;;;3.33;;
66669;SDS011;53568;52.164;4.472;2024-01-15T09:27:07;4.78;;;2.92;;
66669;SDS011;53568;52.164;4.472;2024-01-15T09:29:32;5.24;;;3.23;;
66669;SDS011;53568;52.164;4.472;2024-01-15T09:31:58;5.37;;;3.32;;
66669;SDS011;53568;52.164;4.472;2024-01-15T09:34:23;5.55;;;3.42;;
66669;SDS011;53568;52.164;4.472;2024-01-15T09:36:49;6.09;;;3.69;;
66669;SDS011;53568;52.164;4.472;2024-01-15T09:39:15;5.59;;;3.40;;
66669;SDS011;53568;52.164;4.472;2024-01-15T09:41:40;6.38;;;3.89;;
66669;SDS011;53568;52.164;4.472;2024-01-15T09:44:07;5.77;;;3.54;;
66669;SDS011;53568;52.164;4.472;2024-01-15T09:46:34;6.02;;;3.69;;
66669;SDS011;53568;52.164;4.472;2024-01-15T09:49:00;6.20;;;3.77;;
66669;SDS011;53568;52.164;4.472;2024-01-15T09:51:33;5.92;;;3.60;;
66669;SDS011;53568;52.164;4.472;2024-01-15T09:53:58;5.58;;;3.42;;
66669;SDS011;53568;52.164;4.472;2024-01-15T09:56:24;6.62;;;4.05;;
66669;SDS011;53568;52.164;4.472;2024-01-15T09:58:50;6.32;;;3.83;;
66669;SDS011;53568;52.164;4.472;2024-01-15T10:01:20;6.59;;;4.02;;
66669;SDS011;53568;52.164;4.472;2024-01-15T10:03:46;6.39;;;3.90;;
66669;SDS011;53568;52.164;4.472;2024-01-15T10:06:15;6.24;;;3.81;;
66669;SDS011;53568;52.164;4.472;2024-01-15T10:08:48;6.48;;;3.95;;
66669;SDS011;53568;52.164;4.472;2024-01-15T10:11:15;6.14;;;3.74;;
66669;SDS011;53568;52.164;4.472;2024-01-15T10:13:43;6.28;;;3.85;;
66669;SDS011;53568;52.164;4.472;2024-01-15T10:16:09;4.76;;;2.93;;
66669;SDS011;53568;52.164;4.472;2024-01-15T10:18:36;3.30;;;2.06;;
66669;SDS011;53568;52.164;4.472;2024-01-15T10:21:04;3.44;;;2.15;;
66669;SDS011;53568;52.164;4.472;2024-01-15T10:23:34;3.63;;;2.27;;
66669;SDS011;53568;52.164;4.472;2024-01-15T10:26:01;4.08;;;2.56;;
66669;SDS011;53568;52.164;4.472;2024-01-15T10:28:27;5.18;;;3.24;;
66669;SDS011;53568;52.164;4.472;2024-01-15T10:30:56;5.03;;;3.16;;
66669;SDS011;53568;52.164;4.472;2024-01-15T10:33:24;5.87;;;3.67;;
66669;SDS011;53568;52.164;4.472;2024-01-15T10:35:54;6.76;;;4.19;;
66669;SDS011;53568;52.164;4.472;2024-01-15T10:38:24;6.96;;;4.30;;
66669;SDS011;53568;52.164;4.472;2024-01-15T10:40:51;6.55;;;4.03;;
66669;SDS011;53568;52.164;4.472;2024-01-15T10:43:20;5.89;;;3.64;;
66669;SDS011;53568;52.164;4.472;2024-01-15T10:45:47;5.77;;;3.54;;
66669;SDS011;53568;52.164;4.472;2024-01-15T10:48:14;6.40;;;3.94;;
66669;SDS011;53568;52.164;4.472;2024-01-15T10:50:44;6.12;;;3.80;;
66669;SDS011;53568;52.164;4.472;2024-01-15T10:53:11;4.64;;;2.88;;
66669;SDS011;53568;52.164;4.472;2024-01-15T10:55:39;5.23;;;3.21;;
66669;SDS011;53568;52.164;4.472;2024-01-15T10:58:07;5.61;;;3.47;;
66669;SDS011;53568;52.164;4.472;2024-01-15T11:00:37;5.22;;;3.22;;
66669;SDS011;53568;52.164;4.472;2024-01-15T11:03:04;4.98;;;3.07;;
66669;SDS011;53568;52.164;4.472;2024-01-15T11:05:43;5.66;;;3.51;;
66669;SDS011;53568;52.164;4.472;2024-01-15T11:08:09;5.26;;;3.25;;
66669;SDS011;53568;52.164;4.472;2024-01-15T11:13:21;5.40;;;3.35;;
66669;SDS011;53568;52.164;4.472;2024-01-15T11:16:04;4.53;;;2.84;;
66669;SDS011;53568;52.164;4.472;2024-01-15T11:18:38;5.13;;;3.22;;
66669;SDS011;53568;52.164;4.472;2024-01-15T11:23:49;5.74;;;3.50;;
66669;SDS011;53568;52.164;4.472;2024-01-15T11:26:29;6.88;;;4.19;;
66669;SDS011;53568;52.164;4.472;2024-01-15T11:29:30;8.80;;;5.30;;
66669;SDS011;53568;52.164;4.472;2024-01-15T11:32:00;7.28;;;4.40;;
66669;SDS011;53568;52.164;4.472;2024-01-15T11:37:20;5.98;;;3.63;;
66669;SDS011;53568;52.164;4.472;2024-01-15T11:39:47;6.15;;;3.75;;
66669;SDS011;53568;52.164;4.472;2024-01-15T11:42:13;5.99;;;3.65;;
66669;SDS011;53568;52.164;4.472;2024-01-15T11:44:40;7.84;;;4.74;;
66669;SDS011;53568;52.164;4.472;2024-01-15T11:47:08;6.56;;;3.99;;
66669;SDS011;53568;52.164;4.472;2024-01-15T11:52:33;6.81;;;4.11;;
66669;SDS011;53568;52.164;4.472;2024-01-15T11:55:10;6.56;;;3.97;;
66669;SDS011;53568;52.164;4.472;2024-01-15T11:57:45;6.53;;;4.00;;
66669;SDS011;53568;52.164;4.472;2024-01-15T12:00:14;6.39;;;3.94;;
66669;SDS011;53568;52.164;4.472;2024-01-15T12:02:44;6.69;;;4.14;;
66669;SDS011;53568;52.164;4.472;2024-01-15T12:05:12;6.99;;;4.24;;
66669;SDS011;53568;52.164;4.472;2024-01-15T12:07:42;6.45;;;3.90;;
66669;SDS011;53568;52.164;4.472;2024-01-15T12:10:12;7.20;;;4.29;;
66669;SDS011;53568;52.164;4.472;2024-01-15T12:13:25;7.35;;;4.40;;
66669;SDS011;53568;52.164;4.472;2024-01-15T12:15:35;6.13;;;3.72;;
66669;SDS011;53568;52.164;4.472;2024-01-15T12:18:02;6.63;;;3.99;;
66669;SDS011;53568;52.164;4.472;2024-01-15T12:20:28;7.14;;;4.34;;
66669;SDS011;53568;52.164;4.472;2024-01-15T12:22:55;7.40;;;4.53;;
66669;SDS011;53568;52.164;4.472;2024-01-15T12:25:24;6.73;;;4.28;;
66669;SDS011;53568;52.164;4.472;2024-01-15T12:27:52;7.97;;;5.07;;
66669;SDS011;53568;52.164;4.472;2024-01-15T12:30:18;6.94;;;4.42;;
66669;SDS011;53568;52.164;4.472;2024-01-15T12:32:44;6.47;;;4.13;;
66669;SDS011;53568;52.164;4.472;2024-01-15T12:35:10;5.75;;;3.65;;
66669;SDS011;53568;52.164;4.472;2024-01-15T12:37:37;6.55;;;4.18;;
66669;SDS011;53568;52.164;4.472;2024-01-15T12:40:05;6.52;;;4.06;;
66669;SDS011;53568;52.164;4.472;2024-01-15T12:42:32;6.90;;;4.26;;
66669;SDS011;53568;52.164;4.472;2024-01-15T12:45:02;6.48;;;4.06;;
66669;SDS011;53568;52.164;4.472;2024-01-15T12:47:31;7.13;;;4.43;;
66669;SDS011;53568;52.164;4.472;2024-01-15T12:49:57;7.39;;;4.58;;
66669;SDS011;53568;52.164;4.472;2024-01-15T12:52:26;8.37;;;5.16;;
66669;SDS011;53568;52.164;4.472;2024-01-15T12:54:52;9.13;;;5.60;;
66669;SDS011;53568;52.164;4.472;2024-01-15T12:57:18;10.22;;;6.27;;
66669;SDS011;53568;52.164;4.472;2024-01-15T12:59:44;7.88;;;4.81;;
66669;SDS011;53568;52.164;4.472;2024-01-15T13:02:10;6.92;;;4.21;;
66669;SDS011;53568;52.164;4.472;2024-01-15T13:04:36;6.75;;;4.08;;
66669;SDS011;53568;52.164;4.472;2024-01-15T13:07:02;4.91;;;2.99;;
66669;SDS011;53568;52.164;4.472;2024-01-15T13:09:28;4.19;;;2.58;;
66669;SDS011;53568;52.164;4.472;2024-01-15T13:11:54;5.06;;;3.11;;
66669;SDS011;53568;52.164;4.472;2024-01-15T13:14:20;4.78;;;2.99;;
66669;SDS011;53568;52.164;4.472;2024-01-15T13:16:46;4.68;;;2.96;;
66669;SDS011;53568;52.164;4.472;2024-01-15T13:19:12;5.07;;;3.26;;
66669;SDS011;53568;52.164;4.472;2024-01-15T13:21:40;5.02;;;3.22;;
66669;SDS011;53568;52.164;4.472;2024-01-15T13:24:06;5.01;;;3.24;;
66669;SDS011;53568;52.164;4.472;2024-01-15T13:26:33;4.91;;;3.18;;
66669;SDS011;53568;52.164;4.472;2024-01-15T13:28:59;5.86;;;3.82;;
66669;SDS011;53568;52.164;4.472;2024-01-15T13:31:26;7.00;;;4.53;;
66669;SDS011;53568;52.164;4.472;2024-01-15T13:33:52;8.28;;;5.30;;
66669;SDS011;53568;52.164;4.472;2024-01-15T13:36:18;8.67;;;5.46;;
66669;SDS011;53568;52.164;4.472;2024-01-15T13:38:46;8.28;;;5.21;;
66669;SDS011;53568;52.164;4.472;2024-01-15T13:41:12;9.00;;;5.56;;
66669;SDS011;53568;52.164;4.472;2024-01-15T13:43:37;9.92;;;6.08;;
66669;SDS011;53568;52.164;4.472;2024-01-15T13:46:03;9.71;;;5.89;;
66669;SDS011;53568;52.164;4.472;2024-01-15T13:48:30;10.29;;;6.32;;
66669;SDS011;53568;52.164;4.472;2024-01-15T13:50:56;11.03;;;6.79;;
66669;SDS011;53568;52.164;4.472;2024-01-15T13:53:23;12.07;;;7.26;;
66669;SDS011;53568;52.164;4.472;2024-01-15T13:55:48;12.16;;;7.32;;
66669;SDS011;53568;52.164;4.472;2024-01-15T13:58:14;12.89;;;7.74;;
66669;SDS011;53568;52.164;4.472;2024-01-15T14:00:39;11.28;;;6.83;;
66669;SDS011;53568;52.164;4.472;2024-01-15T14:03:05;10.21;;;6.20;;
66669;SDS011;53568;52.164;4.472;2024-01-15T14:05:30;10.07;;;6.09;;
66669;SDS011;53568;52.164;4.472;2024-01-15T14:07:56;10.00;;;6.08;;
66669;SDS011;53568;52.164;4.472;2024-01-15T14:10:21;8.79;;;5.42;;
66669;SDS011;53568;52.164;4.472;2024-01-15T14:12:47;6.84;;;4.23;;
66669;SDS011;53568;52.164;4.472;2024-01-15T14:15:12;8.85;;;5.43;;
66669;SDS011;53568;52.164;4.472;2024-01-15T14:17:38;8.71;;;5.35;;
66669;SDS011;53568;52.164;4.472;2024-01-15T14:20:04;9.26;;;5.71;;
66669;SDS011;53568;52.164;4.472;2024-01-15T14:22:30;7.84;;;4.94;;
66669;SDS011;53568;52.164;4.472;2024-01-15T14:24:56;7.12;;;4.43;;
66669;SDS011;53568;52.164;4.472;2024-01-15T14:27:21;6.65;;;4.15;;
66669;SDS011;53568;52.164;4.472;2024-01-15T14:29:47;7.34;;;4.55;;
66669;SDS011;53568;52.164;4.472;2024-01-15T14:32:12;8.02;;;4.92;;
66669;SDS011;53568;52.164;4.472;2024-01-15T14:34:38;7.36;;;4.51;;
66669;SDS011;53568;52.164;4.472;2024-01-15T14:37:03;8.15;;;4.94;;
66669;SDS011;53568;52.164;4.472;2024-01-15T14:39:29;7.74;;;4.74;;
66669;SDS011;53568;52.164;4.472;2024-01-15T14:41:57;7.87;;;4.79;;
66669;SDS011;53568;52.164;4.472;2024-01-15T14:44:22;6.97;;;4.23;;
66669;SDS011;53568;52.164;4.472;2024-01-15T14:46:48;7.50;;;4.49;;
66669;SDS011;53568;52.164;4.472;2024-01-15T14:49:13;7.54;;;4.57;;
66669;SDS011;53568;52.164;4.472;2024-01-15T14:51:39;8.11;;;4.91;;
66669;SDS011;53568;52.164;4.472;2024-01-15T14:54:05;7.06;;;4.30;;
66669;SDS011;53568;52.164;4.472;2024-01-15T14:56:30;7.97;;;4.87;;